sensor_id;sensor_type;location;lat;lon;timestamp;temperature;humidity
11650;DHT22;5881;48.522;7.682;2022-11-20T00:00:38;7.10;99.90
11650;DHT22;5881;48.522;7.682;2022-11-20T00:03:03;7.10;99.90
11650;DHT22;5881;48.522;7.682;2022-11-20T00:05:32;7.10;99.90
11650;DHT22;5881;48.522;7.682;2022-11-20T00:07:58;7.10;99.90
11650;DHT22;5881;48.522;7.682;2022-11-20T00:10:23;7.10;99.90
11650;DHT22;5881;48.522;7.682;2022-11-20T00:12:49;7.10;99.90
11650;DHT22;5881;48.522;7.682;2022-11-20T00:15:15;7.10;99.90
11650;DHT22;5881;48.522;7.682;2022-11-20T00:17:40;7.10;99.90
11650;DHT22;5881;48.522;7.682;2022-11-20T00:20:06;7.00;99.90
11650;DHT22;5881;48.522;7.682;2022-11-20T00:22:32;7.00;99.90
11650;DHT22;5881;48.522;7.682;2022-11-20T00:24:57;7.00;99.90
11650;DHT22;5881;48.522;7.682;2022-11-20T00:27:23;7.00;99.90
11650;DHT22;5881;48.522;7.682;2022-11-20T00:29:49;6.90;99.90
11650;DHT22;5881;48.522;7.682;2022-11-20T00:32:14;6.90;99.90
11650;DHT22;5881;48.522;7.682;2022-11-20T00:34:40;6.80;99.90
11650;DHT22;5881;48.522;7.682;2022-11-20T00:37:06;6.90;99.90
11650;DHT22;5881;48.522;7.682;2022-11-20T00:39:31;6.90;99.90
11650;DHT22;5881;48.522;7.682;2022-11-20T00:41:57;6.80;99.90
11650;DHT22;5881;48.522;7.682;2022-11-20T00:44:22;6.80;99.90
11650;DHT22;5881;48.522;7.682;2022-11-20T00:46:48;6.80;99.90
11650;DHT22;5881;48.522;7.682;2022-11-20T00:49:13;6.70;99.90
11650;DHT22;5881;48.522;7.682;2022-11-20T00:51:39;6.70;99.90
11650;DHT22;5881;48.522;7.682;2022-11-20T00:54:05;6.70;99.90
11650;DHT22;5881;48.522;7.682;2022-11-20T00:56:30;6.70;99.90
11650;DHT22;5881;48.522;7.682;2022-11-20T00:58:59;6.70;99.90
11650;DHT22;5881;48.522;7.682;2022-11-20T01:01:26;6.70;99.90
11650;DHT22;5881;48.522;7.682;2022-11-20T01:03:53;6.80;99.90
11650;DHT22;5881;48.522;7.682;2022-11-20T01:06:19;6.70;99.90
11650;DHT22;5881;48.522;7.682;2022-11-20T01:08:46;6.60;99.90
11650;DHT22;5881;48.522;7.682;2022-11-20T01:11:15;6.60;99.90
11650;DHT22;5881;48.522;7.682;2022-11-20T01:13:42;6.60;99.90
11650;DHT22;5881;48.522;7.682;2022-11-20T01:16:16;6.60;99.90
11650;DHT22;5881;48.522;7.682;2022-11-20T01:18:43;6.60;99.90
11650;DHT22;5881;48.522;7.682;2022-11-20T01:21:12;6.60;99.90
11650;DHT22;5881;48.522;7.682;2022-11-20T01:23:40;6.70;99.90
11650;DHT22;5881;48.522;7.682;2022-11-20T01:26:09;6.70;99.90
11650;DHT22;5881;48.522;7.682;2022-11-20T01:28:35;6.60;99.90
11650;DHT22;5881;48.522;7.682;2022-11-20T01:31:01;6.60;99.90
11650;DHT22;5881;48.522;7.682;2022-11-20T01:33:27;6.70;99.90
11650;DHT22;5881;48.522;7.682;2022-11-20T01:35:53;6.70;99.90
11650;DHT22;5881;48.522;7.682;2022-11-20T01:38:18;6.70;99.90
11650;DHT22;5881;48.522;7.682;2022-11-20T01:40:53;6.60;99.90
11650;DHT22;5881;48.522;7.682;2022-11-20T01:43:19;6.60;99.90
11650;DHT22;5881;48.522;7.682;2022-11-20T01:48:48;6.50;99.90
11650;DHT22;5881;48.522;7.682;2022-11-20T01:51:39;6.50;99.90
11650;DHT22;5881;48.522;7.682;2022-11-20T01:54:15;6.60;99.90
11650;DHT22;5881;48.522;7.682;2022-11-20T01:56:44;6.50;99.90
11650;DHT22;5881;48.522;7.682;2022-11-20T01:59:13;6.50;99.90
11650;DHT22;5881;48.522;7.682;2022-11-20T02:01:40;6.50;99.90
11650;DHT22;5881;48.522;7.682;2022-11-20T02:04:07;6.40;99.90
11650;DHT22;5881;48.522;7.682;2022-11-20T02:06:42;6.40;99.90
11650;DHT22;5881;48.522;7.682;2022-11-20T02:09:09;6.50;99.90
11650;DHT22;5881;48.522;7.682;2022-11-20T02:11:35;6.40;99.90
11650;DHT22;5881;48.522;7.682;2022-11-20T02:14:00;6.40;99.90
11650;DHT22;5881;48.522;7.682;2022-11-20T02:16:30;6.40;99.90
11650;DHT22;5881;48.522;7.682;2022-11-20T02:19:00;6.40;99.90
11650;DHT22;5881;48.522;7.682;2022-11-20T02:21:42;6.70;99.90
11650;DHT22;5881;48.522;7.682;2022-11-20T02:24:21;6.50;99.90
11650;DHT22;5881;48.522;7.682;2022-11-20T02:27:09;6.70;99.90
11650;DHT22;5881;48.522;7.682;2022-11-20T02:29:42;6.60;99.90
11650;DHT22;5881;48.522;7.682;2022-11-20T02:32:20;6.60;99.90
11650;DHT22;5881;48.522;7.682;2022-11-20T02:34:46;6.70;99.90
11650;DHT22;5881;48.522;7.682;2022-11-20T02:37:12;6.60;99.90
11650;DHT22;5881;48.522;7.682;2022-11-20T02:39:38;6.60;99.90
11650;DHT22;5881;48.522;7.682;2022-11-20T02:42:05;6.70;99.90
11650;DHT22;5881;48.522;7.682;2022-11-20T02:44:30;6.70;99.90
11650;DHT22;5881;48.522;7.682;2022-11-20T02:46:59;6.70;99.90
11650;DHT22;5881;48.522;7.682;2022-11-20T02:49:25;6.70;99.90
11650;DHT22;5881;48.522;7.682;2022-11-20T02:51:51;6.70;99.90
11650;DHT22;5881;48.522;7.682;2022-11-20T02:54:16;6.70;99.90
11650;DHT22;5881;48.522;7.682;2022-11-20T02:56:43;6.80;99.90
11650;DHT22;5881;48.522;7.682;2022-11-20T02:59:09;6.80;99.90
11650;DHT22;5881;48.522;7.682;2022-11-20T03:01:35;6.90;99.90
11650;DHT22;5881;48.522;7.682;2022-11-20T03:04:01;6.90;99.90
11650;DHT22;5881;48.522;7.682;2022-11-20T03:06:27;6.90;99.90
11650;DHT22;5881;48.522;7.682;2022-11-20T03:08:52;7.00;99.90
11650;DHT22;5881;48.522;7.682;2022-11-20T03:11:18;7.00;99.90
11650;DHT22;5881;48.522;7.682;2022-11-20T03:13:44;7.10;99.90
11650;DHT22;5881;48.522;7.682;2022-11-20T03:16:12;7.10;99.90
11650;DHT22;5881;48.522;7.682;2022-11-20T03:18:39;7.10;99.90
11650;DHT22;5881;48.522;7.682;2022-11-20T03:21:05;7.10;99.90
11650;DHT22;5881;48.522;7.682;2022-11-20T03:23:31;7.10;99.90
11650;DHT22;5881;48.522;7.682;2022-11-20T03:26:17;7.10;99.90
11650;DHT22;5881;48.522;7.682;2022-11-20T03:28:56;7.00;99.90
11650;DHT22;5881;48.522;7.682;2022-11-20T03:31:26;7.10;99.90
11650;DHT22;5881;48.522;7.682;2022-11-20T03:33:52;7.10;99.90
11650;DHT22;5881;48.522;7.682;2022-11-20T03:36:19;7.00;99.90
11650;DHT22;5881;48.522;7.682;2022-11-20T03:38:44;7.00;99.90
11650;DHT22;5881;48.522;7.682;2022-11-20T03:41:17;7.00;99.90
11650;DHT22;5881;48.522;7.682;2022-11-20T03:43:48;7.00;99.90
11650;DHT22;5881;48.522;7.682;2022-11-20T03:46:14;7.00;99.90
11650;DHT22;5881;48.522;7.682;2022-11-20T03:48:40;7.00;99.90
11650;DHT22;5881;48.522;7.682;2022-11-20T03:51:09;6.90;99.90
11650;DHT22;5881;48.522;7.682;2022-11-20T03:53:35;6.90;99.90
11650;DHT22;5881;48.522;7.682;2022-11-20T03:56:01;6.80;99.90
11650;DHT22;5881;48.522;7.682;2022-11-20T03:58:26;6.80;99.90
11650;DHT22;5881;48.522;7.682;2022-11-20T04:00:52;6.70;99.90
11650;DHT22;5881;48.522;7.682;2022-11-20T04:03:17;6.70;99.90
11650;DHT22;5881;48.522;7.682;2022-11-20T04:05:43;6.70;99.90
11650;DHT22;5881;48.522;7.682;2022-11-20T04:08:09;6.60;99.90
11650;DHT22;5881;48.522;7.682;2022-11-20T04:10:35;6.60;99.90
11650;DHT22;5881;48.522;7.682;2022-11-20T04:13:00;6.60;99.90
11650;DHT22;5881;48.522;7.682;2022-11-20T04:15:26;6.60;99.90
11650;DHT22;5881;48.522;7.682;2022-11-20T04:17:52;6.60;99.90
11650;DHT22;5881;48.522;7.682;2022-11-20T04:20:18;6.60;99.90
11650;DHT22;5881;48.522;7.682;2022-11-20T04:22:44;6.60;99.90
11650;DHT22;5881;48.522;7.682;2022-11-20T04:25:10;6.80;99.90
11650;DHT22;5881;48.522;7.682;2022-11-20T04:27:36;6.70;99.90
11650;DHT22;5881;48.522;7.682;2022-11-20T04:30:01;6.70;99.90
11650;DHT22;5881;48.522;7.682;2022-11-20T04:32:27;6.70;99.90
11650;DHT22;5881;48.522;7.682;2022-11-20T04:34:53;6.70;99.90
11650;DHT22;5881;48.522;7.682;2022-11-20T04:37:18;6.70;99.90
11650;DHT22;5881;48.522;7.682;2022-11-20T04:39:44;6.80;99.90
11650;DHT22;5881;48.522;7.682;2022-11-20T04:42:10;6.70;99.90
11650;DHT22;5881;48.522;7.682;2022-11-20T04:44:54;6.70;99.90
11650;DHT22;5881;48.522;7.682;2022-11-20T04:47:20;6.70;99.90
11650;DHT22;5881;48.522;7.682;2022-11-20T04:49:46;6.90;99.90
11650;DHT22;5881;48.522;7.682;2022-11-20T04:52:12;6.80;99.90
11650;DHT22;5881;48.522;7.682;2022-11-20T04:54:37;6.80;99.90
11650;DHT22;5881;48.522;7.682;2022-11-20T04:57:03;6.80;99.90
11650;DHT22;5881;48.522;7.682;2022-11-20T04:59:29;6.70;99.90
11650;DHT22;5881;48.522;7.682;2022-11-20T05:01:54;6.70;99.90
11650;DHT22;5881;48.522;7.682;2022-11-20T05:04:20;6.80;99.90
11650;DHT22;5881;48.522;7.682;2022-11-20T05:06:45;6.80;99.90
11650;DHT22;5881;48.522;7.682;2022-11-20T05:09:12;6.80;99.90
11650;DHT22;5881;48.522;7.682;2022-11-20T05:11:38;6.80;99.90
11650;DHT22;5881;48.522;7.682;2022-11-20T05:14:03;6.90;99.90
11650;DHT22;5881;48.522;7.682;2022-11-20T05:16:29;6.90;99.90
11650;DHT22;5881;48.522;7.682;2022-11-20T05:18:55;6.80;99.90
11650;DHT22;5881;48.522;7.682;2022-11-20T05:21:21;6.80;99.90
11650;DHT22;5881;48.522;7.682;2022-11-20T05:23:47;6.80;99.90
11650;DHT22;5881;48.522;7.682;2022-11-20T05:26:18;6.80;99.90
11650;DHT22;5881;48.522;7.682;2022-11-20T05:28:44;6.80;99.90
11650;DHT22;5881;48.522;7.682;2022-11-20T05:31:16;6.80;99.90
11650;DHT22;5881;48.522;7.682;2022-11-20T05:33:43;6.90;99.90
11650;DHT22;5881;48.522;7.682;2022-11-20T05:36:09;6.90;99.90
11650;DHT22;5881;48.522;7.682;2022-11-20T05:38:35;7.10;99.90
11650;DHT22;5881;48.522;7.682;2022-11-20T05:41:16;6.90;99.90
11650;DHT22;5881;48.522;7.682;2022-11-20T05:43:44;6.90;99.90
11650;DHT22;5881;48.522;7.682;2022-11-20T05:46:11;6.90;99.90
11650;DHT22;5881;48.522;7.682;2022-11-20T05:48:38;6.90;99.90
11650;DHT22;5881;48.522;7.682;2022-11-20T05:51:08;6.80;99.90
11650;DHT22;5881;48.522;7.682;2022-11-20T05:53:35;6.80;99.90
11650;DHT22;5881;48.522;7.682;2022-11-20T05:58:57;6.70;99.90
11650;DHT22;5881;48.522;7.682;2022-11-20T06:01:24;6.70;99.90
11650;DHT22;5881;48.522;7.682;2022-11-20T06:03:50;6.60;99.90
11650;DHT22;5881;48.522;7.682;2022-11-20T06:06:17;6.60;99.90
11650;DHT22;5881;48.522;7.682;2022-11-20T06:08:44;6.50;99.90
11650;DHT22;5881;48.522;7.682;2022-11-20T06:11:11;6.70;99.90
11650;DHT22;5881;48.522;7.682;2022-11-20T06:13:38;6.60;99.90
11650;DHT22;5881;48.522;7.682;2022-11-20T06:16:04;6.50;99.90
11650;DHT22;5881;48.522;7.682;2022-11-20T06:18:30;6.50;99.90
11650;DHT22;5881;48.522;7.682;2022-11-20T06:21:08;6.50;99.90
11650;DHT22;5881;48.522;7.682;2022-11-20T06:23:35;6.70;99.90
11650;DHT22;5881;48.522;7.682;2022-11-20T06:26:08;6.50;99.90
11650;DHT22;5881;48.522;7.682;2022-11-20T06:28:34;6.60;99.90
11650;DHT22;5881;48.522;7.682;2022-11-20T06:31:00;6.60;99.90
11650;DHT22;5881;48.522;7.682;2022-11-20T06:33:27;6.70;99.90
11650;DHT22;5881;48.522;7.682;2022-11-20T06:35:56;6.60;99.90
11650;DHT22;5881;48.522;7.682;2022-11-20T06:38:22;6.70;99.90
11650;DHT22;5881;48.522;7.682;2022-11-20T06:40:47;6.70;99.90
11650;DHT22;5881;48.522;7.682;2022-11-20T06:43:13;6.70;99.90
11650;DHT22;5881;48.522;7.682;2022-11-20T06:45:38;6.70;99.90
11650;DHT22;5881;48.522;7.682;2022-11-20T06:48:04;6.70;99.90
11650;DHT22;5881;48.522;7.682;2022-11-20T06:50:30;6.70;99.90
11650;DHT22;5881;48.522;7.682;2022-11-20T06:52:55;6.70;99.90
11650;DHT22;5881;48.522;7.682;2022-11-20T06:55:21;6.80;99.90
11650;DHT22;5881;48.522;7.682;2022-11-20T06:57:46;6.80;99.90
11650;DHT22;5881;48.522;7.682;2022-11-20T07:00:13;6.70;99.90
11650;DHT22;5881;48.522;7.682;2022-11-20T07:02:38;6.80;99.90
11650;DHT22;5881;48.522;7.682;2022-11-20T07:05:04;6.80;99.90
11650;DHT22;5881;48.522;7.682;2022-11-20T07:07:30;6.80;99.90
11650;DHT22;5881;48.522;7.682;2022-11-20T07:09:55;6.80;99.90
11650;DHT22;5881;48.522;7.682;2022-11-20T07:12:21;6.80;99.90
11650;DHT22;5881;48.522;7.682;2022-11-20T07:14:46;6.90;99.90
11650;DHT22;5881;48.522;7.682;2022-11-20T07:17:12;6.90;99.90
11650;DHT22;5881;48.522;7.682;2022-11-20T07:19:38;6.90;99.90
11650;DHT22;5881;48.522;7.682;2022-11-20T07:22:04;6.90;99.90
11650;DHT22;5881;48.522;7.682;2022-11-20T07:24:29;6.90;99.90
11650;DHT22;5881;48.522;7.682;2022-11-20T07:26:55;7.00;99.90
11650;DHT22;5881;48.522;7.682;2022-11-20T07:29:21;7.00;99.90
11650;DHT22;5881;48.522;7.682;2022-11-20T07:31:46;7.00;99.90
11650;DHT22;5881;48.522;7.682;2022-11-20T07:34:12;7.00;99.90
11650;DHT22;5881;48.522;7.682;2022-11-20T07:36:38;7.00;99.90
11650;DHT22;5881;48.522;7.682;2022-11-20T07:39:04;7.00;99.90
11650;DHT22;5881;48.522;7.682;2022-11-20T07:41:30;7.00;99.90
11650;DHT22;5881;48.522;7.682;2022-11-20T07:43:56;7.00;99.90
11650;DHT22;5881;48.522;7.682;2022-11-20T07:46:22;7.00;99.90
11650;DHT22;5881;48.522;7.682;2022-11-20T07:48:47;7.00;99.90
11650;DHT22;5881;48.522;7.682;2022-11-20T07:51:13;7.00;99.90
11650;DHT22;5881;48.522;7.682;2022-11-20T07:53:39;7.00;99.90
11650;DHT22;5881;48.522;7.682;2022-11-20T07:56:04;7.00;99.90
11650;DHT22;5881;48.522;7.682;2022-11-20T07:58:31;7.00;99.90
11650;DHT22;5881;48.522;7.682;2022-11-20T08:01:02;7.00;99.90
11650;DHT22;5881;48.522;7.682;2022-11-20T08:03:27;7.10;99.90
11650;DHT22;5881;48.522;7.682;2022-11-20T08:05:53;7.10;99.90
11650;DHT22;5881;48.522;7.682;2022-11-20T08:08:19;7.10;99.90
11650;DHT22;5881;48.522;7.682;2022-11-20T08:10:44;7.20;99.90
11650;DHT22;5881;48.522;7.682;2022-11-20T08:13:10;7.20;99.90
11650;DHT22;5881;48.522;7.682;2022-11-20T08:15:54;7.20;99.90
11650;DHT22;5881;48.522;7.682;2022-11-20T08:18:20;7.20;99.90
11650;DHT22;5881;48.522;7.682;2022-11-20T08:20:45;7.20;99.90
11650;DHT22;5881;48.522;7.682;2022-11-20T08:23:11;7.30;99.90
11650;DHT22;5881;48.522;7.682;2022-11-20T08:25:37;7.30;99.90
11650;DHT22;5881;48.522;7.682;2022-11-20T08:28:08;7.30;99.90
11650;DHT22;5881;48.522;7.682;2022-11-20T08:30:35;7.40;99.90
11650;DHT22;5881;48.522;7.682;2022-11-20T08:33:04;7.40;99.90
11650;DHT22;5881;48.522;7.682;2022-11-20T08:35:37;7.40;99.90
11650;DHT22;5881;48.522;7.682;2022-11-20T08:38:04;7.40;99.90
11650;DHT22;5881;48.522;7.682;2022-11-20T08:40:31;7.40;99.90
11650;DHT22;5881;48.522;7.682;2022-11-20T08:42:56;7.40;99.90
11650;DHT22;5881;48.522;7.682;2022-11-20T08:45:22;7.40;99.90
11650;DHT22;5881;48.522;7.682;2022-11-20T08:47:48;7.40;99.90
11650;DHT22;5881;48.522;7.682;2022-11-20T08:50:15;7.40;99.90
11650;DHT22;5881;48.522;7.682;2022-11-20T08:52:41;7.40;99.90
11650;DHT22;5881;48.522;7.682;2022-11-20T08:55:07;7.50;99.90
11650;DHT22;5881;48.522;7.682;2022-11-20T08:57:33;7.50;99.90
11650;DHT22;5881;48.522;7.682;2022-11-20T08:59:59;7.60;99.90
11650;DHT22;5881;48.522;7.682;2022-11-20T09:02:25;7.60;99.90
11650;DHT22;5881;48.522;7.682;2022-11-20T09:04:51;7.70;99.90
11650;DHT22;5881;48.522;7.682;2022-11-20T09:07:16;7.80;99.90
11650;DHT22;5881;48.522;7.682;2022-11-20T09:09:42;7.90;99.90
11650;DHT22;5881;48.522;7.682;2022-11-20T09:12:08;7.90;99.90
11650;DHT22;5881;48.522;7.682;2022-11-20T09:14:33;8.00;99.90
11650;DHT22;5881;48.522;7.682;2022-11-20T09:16:59;8.10;99.90
11650;DHT22;5881;48.522;7.682;2022-11-20T09:19:25;8.20;99.90
11650;DHT22;5881;48.522;7.682;2022-11-20T09:21:51;8.40;99.90
11650;DHT22;5881;48.522;7.682;2022-11-20T09:24:17;8.50;99.90
11650;DHT22;5881;48.522;7.682;2022-11-20T09:26:43;8.60;99.90
11650;DHT22;5881;48.522;7.682;2022-11-20T09:29:09;8.80;99.90
11650;DHT22;5881;48.522;7.682;2022-11-20T09:31:35;8.90;99.90
11650;DHT22;5881;48.522;7.682;2022-11-20T09:34:00;9.00;99.90
11650;DHT22;5881;48.522;7.682;2022-11-20T09:36:26;9.40;99.90
11650;DHT22;5881;48.522;7.682;2022-11-20T09:38:51;9.40;99.90
11650;DHT22;5881;48.522;7.682;2022-11-20T09:46:55;9.20;99.90
11650;DHT22;5881;48.522;7.682;2022-11-20T09:49:49;9.10;99.90
11650;DHT22;5881;48.522;7.682;2022-11-20T09:52:49;9.10;99.90
11650;DHT22;5881;48.522;7.682;2022-11-20T09:55:19;9.10;99.90
11650;DHT22;5881;48.522;7.682;2022-11-20T09:57:47;9.30;99.90
11650;DHT22;5881;48.522;7.682;2022-11-20T10:00:14;9.40;99.90
11650;DHT22;5881;48.522;7.682;2022-11-20T10:02:47;9.60;99.90
11650;DHT22;5881;48.522;7.682;2022-11-20T10:05:18;9.80;99.90
11650;DHT22;5881;48.522;7.682;2022-11-20T10:10:39;9.90;99.90
11650;DHT22;5881;48.522;7.682;2022-11-20T10:25:05;9.50;99.90
11650;DHT22;5881;48.522;7.682;2022-11-20T10:30:17;9.50;99.90
11650;DHT22;5881;48.522;7.682;2022-11-20T10:32:58;9.70;99.90
11650;DHT22;5881;48.522;7.682;2022-11-20T10:35:35;9.80;99.90
11650;DHT22;5881;48.522;7.682;2022-11-20T10:38:09;10.40;99.90
11650;DHT22;5881;48.522;7.682;2022-11-20T10:40:44;10.50;99.90
11650;DHT22;5881;48.522;7.682;2022-11-20T10:43:21;10.90;99.90
11650;DHT22;5881;48.522;7.682;2022-11-20T10:45:55;12.00;99.90
11650;DHT22;5881;48.522;7.682;2022-11-20T10:48:23;13.50;99.90
11650;DHT22;5881;48.522;7.682;2022-11-20T10:56:41;14.30;99.90
11650;DHT22;5881;48.522;7.682;2022-11-20T10:59:41;14.50;52.50
11650;DHT22;5881;48.522;7.682;2022-11-20T11:02:21;14.10;46.50
11650;DHT22;5881;48.522;7.682;2022-11-20T11:04:52;14.30;48.10
11650;DHT22;5881;48.522;7.682;2022-11-20T11:07:24;13.90;40.80
11650;DHT22;5881;48.522;7.682;2022-11-20T11:09:53;12.50;29.70
11650;DHT22;5881;48.522;7.682;2022-11-20T11:12:25;11.90;27.90
11650;DHT22;5881;48.522;7.682;2022-11-20T11:14:53;11.60;27.40
11650;DHT22;5881;48.522;7.682;2022-11-20T11:17:29;11.30;26.70
11650;DHT22;5881;48.522;7.682;2022-11-20T11:19:59;11.00;26.40
11650;DHT22;5881;48.522;7.682;2022-11-20T11:22:29;10.50;23.10
11650;DHT22;5881;48.522;7.682;2022-11-20T11:24:55;10.60;23.30
11650;DHT22;5881;48.522;7.682;2022-11-20T11:27:21;10.50;24.50
11650;DHT22;5881;48.522;7.682;2022-11-20T11:29:46;10.60;25.20
11650;DHT22;5881;48.522;7.682;2022-11-20T11:32:20;10.60;24.60
11650;DHT22;5881;48.522;7.682;2022-11-20T11:35:04;11.20;27.70
11650;DHT22;5881;48.522;7.682;2022-11-20T11:37:36;12.80;51.60
11650;DHT22;5881;48.522;7.682;2022-11-20T11:40:03;13.00;34.80
11650;DHT22;5881;48.522;7.682;2022-11-20T11:42:30;13.40;31.30
11650;DHT22;5881;48.522;7.682;2022-11-20T11:44:59;13.90;34.10
11650;DHT22;5881;48.522;7.682;2022-11-20T11:52:45;13.20;23.60
11650;DHT22;5881;48.522;7.682;2022-11-20T11:55:24;13.30;23.80
11650;DHT22;5881;48.522;7.682;2022-11-20T11:58:13;12.80;21.10
11650;DHT22;5881;48.522;7.682;2022-11-20T12:00:51;12.80;21.10
11650;DHT22;5881;48.522;7.682;2022-11-20T12:03:28;12.90;22.00
11650;DHT22;5881;48.522;7.682;2022-11-20T12:05:59;13.00;22.50
11650;DHT22;5881;48.522;7.682;2022-11-20T12:08:31;12.60;20.80
11650;DHT22;5881;48.522;7.682;2022-11-20T12:16:14;12.50;19.10
11650;DHT22;5881;48.522;7.682;2022-11-20T12:18:41;12.30;18.70
11650;DHT22;5881;48.522;7.682;2022-11-20T12:26:48;13.30;24.10
11650;DHT22;5881;48.522;7.682;2022-11-20T12:40:41;11.30;10.50
11650;DHT22;5881;48.522;7.682;2022-11-20T12:43:26;11.00;11.70
11650;DHT22;5881;48.522;7.682;2022-11-20T12:46:33;11.10;13.10
11650;DHT22;5881;48.522;7.682;2022-11-20T12:51:51;11.10;13.90
11650;DHT22;5881;48.522;7.682;2022-11-20T12:54:47;11.00;11.00
11650;DHT22;5881;48.522;7.682;2022-11-20T13:00:09;10.70;10.10
11650;DHT22;5881;48.522;7.682;2022-11-20T13:07:43;10.60;9.10
11650;DHT22;5881;48.522;7.682;2022-11-20T13:13:23;10.60;8.80
11650;DHT22;5881;48.522;7.682;2022-11-20T13:16:00;10.60;7.90
11650;DHT22;5881;48.522;7.682;2022-11-20T13:18:33;10.60;7.80
11650;DHT22;5881;48.522;7.682;2022-11-20T13:21:01;10.60;9.70
11650;DHT22;5881;48.522;7.682;2022-11-20T13:23:27;10.80;10.20
11650;DHT22;5881;48.522;7.682;2022-11-20T13:26:13;10.80;9.90
11650;DHT22;5881;48.522;7.682;2022-11-20T13:28:39;10.70;9.10
11650;DHT22;5881;48.522;7.682;2022-11-20T13:31:22;10.60;9.00
11650;DHT22;5881;48.522;7.682;2022-11-20T13:33:52;10.90;10.70
11650;DHT22;5881;48.522;7.682;2022-11-20T13:36:23;11.00;11.70
11650;DHT22;5881;48.522;7.682;2022-11-20T13:38:58;11.00;11.10
11650;DHT22;5881;48.522;7.682;2022-11-20T13:41:35;10.70;8.70
11650;DHT22;5881;48.522;7.682;2022-11-20T13:44:15;10.40;5.50
11650;DHT22;5881;48.522;7.682;2022-11-20T13:46:48;10.40;6.90
11650;DHT22;5881;48.522;7.682;2022-11-20T13:54:55;10.20;5.30
11650;DHT22;5881;48.522;7.682;2022-11-20T14:02:37;10.00;3.70
11650;DHT22;5881;48.522;7.682;2022-11-20T14:05:04;10.00;4.10
11650;DHT22;5881;48.522;7.682;2022-11-20T14:07:40;9.90;3.00
11650;DHT22;5881;48.522;7.682;2022-11-20T14:10:40;9.90;3.40
11650;DHT22;5881;48.522;7.682;2022-11-20T14:13:19;9.70;2.70
11650;DHT22;5881;48.522;7.682;2022-11-20T14:15:45;9.70;3.70
11650;DHT22;5881;48.522;7.682;2022-11-20T14:18:19;9.70;4.30
11650;DHT22;5881;48.522;7.682;2022-11-20T14:20:45;9.60;4.10
11650;DHT22;5881;48.522;7.682;2022-11-20T14:23:11;9.60;3.80
11650;DHT22;5881;48.522;7.682;2022-11-20T14:25:41;9.60;2.30
11650;DHT22;5881;48.522;7.682;2022-11-20T14:28:11;9.50;2.60
11650;DHT22;5881;48.522;7.682;2022-11-20T14:30:46;9.40;2.70
11650;DHT22;5881;48.522;7.682;2022-11-20T14:33:14;9.50;1.40
11650;DHT22;5881;48.522;7.682;2022-11-20T14:35:45;9.40;1.40
11650;DHT22;5881;48.522;7.682;2022-11-20T14:38:14;9.40;1.00
11650;DHT22;5881;48.522;7.682;2022-11-20T14:40:40;9.50;1.60
11650;DHT22;5881;48.522;7.682;2022-11-20T14:43:24;9.50;1.00
11650;DHT22;5881;48.522;7.682;2022-11-20T14:45:56;9.50;1.60
11650;DHT22;5881;48.522;7.682;2022-11-20T14:48:31;9.40;1.30
11650;DHT22;5881;48.522;7.682;2022-11-20T14:50:58;9.40;1.00
11650;DHT22;5881;48.522;7.682;2022-11-20T14:53:24;9.30;1.40
11650;DHT22;5881;48.522;7.682;2022-11-20T14:56:01;9.20;1.20
11650;DHT22;5881;48.522;7.682;2022-11-20T14:58:32;9.20;1.00
11650;DHT22;5881;48.522;7.682;2022-11-20T15:01:05;9.20;1.00
11650;DHT22;5881;48.522;7.682;2022-11-20T15:03:36;9.10;1.20
11650;DHT22;5881;48.522;7.682;2022-11-20T15:06:03;9.10;1.00
11650;DHT22;5881;48.522;7.682;2022-11-20T15:08:29;9.10;1.00
11650;DHT22;5881;48.522;7.682;2022-11-20T15:10:55;9.00;2.10
11650;DHT22;5881;48.522;7.682;2022-11-20T15:15:51;9.00;1.00
11650;DHT22;5881;48.522;7.682;2022-11-20T15:18:43;9.00;1.20
11650;DHT22;5881;48.522;7.682;2022-11-20T15:21:14;8.90;1.00
11650;DHT22;5881;48.522;7.682;2022-11-20T15:23:41;8.90;11.80
11650;DHT22;5881;48.522;7.682;2022-11-20T15:26:08;8.90;1.00
11650;DHT22;5881;48.522;7.682;2022-11-20T15:28:40;8.90;1.00
11650;DHT22;5881;48.522;7.682;2022-11-20T15:31:06;8.90;1.00
11650;DHT22;5881;48.522;7.682;2022-11-20T15:33:34;8.90;1.00
11650;DHT22;5881;48.522;7.682;2022-11-20T15:36:00;8.80;1.00
11650;DHT22;5881;48.522;7.682;2022-11-20T15:38:25;8.80;1.00
11650;DHT22;5881;48.522;7.682;2022-11-20T15:40:51;8.80;1.00
11650;DHT22;5881;48.522;7.682;2022-11-20T15:43:17;8.80;1.00
11650;DHT22;5881;48.522;7.682;2022-11-20T15:45:46;8.70;1.00
11650;DHT22;5881;48.522;7.682;2022-11-20T15:48:36;8.70;1.00
11650;DHT22;5881;48.522;7.682;2022-11-20T15:51:28;8.70;1.00
11650;DHT22;5881;48.522;7.682;2022-11-20T15:53:55;8.70;1.00
11650;DHT22;5881;48.522;7.682;2022-11-20T15:56:21;8.70;1.00
11650;DHT22;5881;48.522;7.682;2022-11-20T15:58:47;8.70;1.00
11650;DHT22;5881;48.522;7.682;2022-11-20T16:01:15;8.60;1.00
11650;DHT22;5881;48.522;7.682;2022-11-20T16:03:41;8.60;1.00
11650;DHT22;5881;48.522;7.682;2022-11-20T16:06:07;8.60;1.00
11650;DHT22;5881;48.522;7.682;2022-11-20T16:08:33;8.60;1.10
11650;DHT22;5881;48.522;7.682;2022-11-20T16:10:58;8.60;2.10
11650;DHT22;5881;48.522;7.682;2022-11-20T16:13:24;8.60;2.10
11650;DHT22;5881;48.522;7.682;2022-11-20T16:16:19;8.50;3.00
11650;DHT22;5881;48.522;7.682;2022-11-20T16:18:45;8.50;3.90
11650;DHT22;5881;48.522;7.682;2022-11-20T16:21:11;8.50;5.20
11650;DHT22;5881;48.522;7.682;2022-11-20T16:23:38;8.40;5.60
11650;DHT22;5881;48.522;7.682;2022-11-20T16:26:15;8.40;6.60
11650;DHT22;5881;48.522;7.682;2022-11-20T16:28:42;8.40;7.70
11650;DHT22;5881;48.522;7.682;2022-11-20T16:31:16;8.40;8.00
11650;DHT22;5881;48.522;7.682;2022-11-20T16:33:41;8.40;8.20
11650;DHT22;5881;48.522;7.682;2022-11-20T16:36:12;8.50;11.50
11650;DHT22;5881;48.522;7.682;2022-11-20T16:38:39;8.40;19.00
11650;DHT22;5881;48.522;7.682;2022-11-20T16:41:05;8.40;25.00
11650;DHT22;5881;48.522;7.682;2022-11-20T16:43:31;8.30;76.70
11650;DHT22;5881;48.522;7.682;2022-11-20T16:45:57;8.40;99.90
11650;DHT22;5881;48.522;7.682;2022-11-20T16:48:22;8.30;99.90
11650;DHT22;5881;48.522;7.682;2022-11-20T16:50:52;8.40;1.00
11650;DHT22;5881;48.522;7.682;2022-11-20T16:53:19;8.30;1.00
11650;DHT22;5881;48.522;7.682;2022-11-20T16:55:45;8.30;99.90
11650;DHT22;5881;48.522;7.682;2022-11-20T16:58:11;8.30;1.00
11650;DHT22;5881;48.522;7.682;2022-11-20T17:00:38;8.30;99.90
11650;DHT22;5881;48.522;7.682;2022-11-20T17:03:05;8.30;99.90
11650;DHT22;5881;48.522;7.682;2022-11-20T17:05:31;8.30;99.90
11650;DHT22;5881;48.522;7.682;2022-11-20T17:07:57;8.30;99.90
11650;DHT22;5881;48.522;7.682;2022-11-20T17:10:23;8.30;99.90
11650;DHT22;5881;48.522;7.682;2022-11-20T17:12:48;8.30;99.90
11650;DHT22;5881;48.522;7.682;2022-11-20T17:15:14;8.30;99.90
11650;DHT22;5881;48.522;7.682;2022-11-20T17:17:40;8.30;99.90
11650;DHT22;5881;48.522;7.682;2022-11-20T17:20:05;8.20;99.90
11650;DHT22;5881;48.522;7.682;2022-11-20T17:22:31;8.20;99.90
11650;DHT22;5881;48.522;7.682;2022-11-20T17:24:57;8.20;99.90
11650;DHT22;5881;48.522;7.682;2022-11-20T17:27:23;8.20;99.90
11650;DHT22;5881;48.522;7.682;2022-11-20T17:29:48;8.20;99.90
11650;DHT22;5881;48.522;7.682;2022-11-20T17:32:14;8.10;99.90
11650;DHT22;5881;48.522;7.682;2022-11-20T17:34:40;8.20;99.90
11650;DHT22;5881;48.522;7.682;2022-11-20T17:37:06;8.20;99.90
11650;DHT22;5881;48.522;7.682;2022-11-20T17:39:31;8.00;99.90
11650;DHT22;5881;48.522;7.682;2022-11-20T17:41:58;8.00;99.90